createdAt,value
2022-10-21T00:01:55.073Z,67.61
2022-10-21T00:04:21.333Z,67.49
2022-10-21T00:06:47.594Z,67.71
2022-10-21T00:09:14.020Z,68.15
2022-10-21T00:11:40.319Z,68.21
2022-10-21T00:14:06.589Z,67.92
2022-10-21T00:16:32.839Z,68.20
2022-10-21T00:18:59.133Z,68.13
2022-10-21T00:21:25.392Z,67.87
2022-10-21T00:23:51.671Z,68.20
2022-10-21T00:26:17.927Z,68.26
2022-10-21T00:28:44.190Z,68.45
2022-10-21T00:31:10.433Z,68.67
2022-10-21T00:33:36.683Z,68.56
2022-10-21T00:36:03.042Z,68.33
2022-10-21T00:38:29.295Z,68.41
2022-10-21T00:40:55.575Z,68.34
2022-10-21T00:43:21.862Z,68.58
2022-10-21T00:45:48.124Z,68.35
2022-10-21T00:48:14.446Z,68.55
2022-10-21T00:50:42.595Z,68.53
2022-10-21T00:53:09.110Z,68.45
2022-10-21T00:55:35.356Z,68.68
2022-10-21T00:58:01.643Z,68.62
2022-10-21T01:00:27.900Z,68.71
2022-10-21T01:02:54.156Z,68.92
2022-10-21T01:05:20.403Z,69.03
2022-10-21T01:07:47.139Z,69.58
2022-10-21T01:10:13.608Z,69.88
2022-10-21T01:12:39.862Z,70.60
2022-10-21T01:15:06.111Z,70.97
2022-10-21T01:17:44.191Z,70.86
2022-10-21T01:20:11.480Z,70.47
2022-10-21T01:22:37.746Z,70.78
2022-10-21T01:25:03.994Z,70.54
2022-10-21T01:27:30.304Z,70.31
2022-10-21T01:29:56.855Z,70.28
2022-10-21T01:32:23.109Z,70.02
2022-10-21T01:34:49.408Z,70.17
2022-10-21T01:37:15.660Z,70.12
2022-10-21T01:39:41.918Z,70.26
2022-10-21T01:44:41.317Z,69.92
2022-10-21T01:47:07.557Z,69.93
2022-10-21T01:49:33.881Z,69.82
2022-10-21T01:52:00.151Z,70.27
2022-10-21T01:54:26.414Z,69.97
2022-10-21T01:56:52.667Z,70.41
2022-10-21T01:59:18.923Z,70.26
2022-10-21T02:01:45.232Z,70.45
2022-10-21T02:04:11.477Z,70.38
2022-10-21T02:06:37.732Z,70.70
2022-10-21T02:09:04.124Z,70.71
2022-10-21T02:11:30.443Z,71.07
2022-10-21T02:13:56.699Z,71.06
2022-10-21T02:16:22.981Z,71.33
2022-10-21T02:18:49.235Z,71.41
2022-10-21T02:21:15.529Z,72.22
2022-10-21T02:23:41.771Z,72.58
2022-10-21T02:26:08.039Z,72.71
2022-10-21T02:28:34.342Z,72.85
2022-10-21T02:31:02.270Z,73.10
2022-10-21T02:33:28.519Z,73.78
2022-10-21T02:35:54.786Z,75.34
2022-10-21T02:38:21.021Z,75.74
2022-10-21T02:40:47.303Z,76.22
2022-10-21T02:43:13.543Z,76.73
2022-10-21T02:45:39.790Z,77.44
2022-10-21T02:48:06.084Z,77.85
2022-10-21T02:50:32.347Z,77.55
2022-10-21T02:52:58.605Z,77.62
2022-10-21T02:55:24.912Z,77.58
2022-10-21T02:57:51.170Z,77.66
2022-10-21T03:00:17.429Z,77.28
2022-10-21T03:02:43.719Z,77.11
2022-10-21T03:05:10.354Z,76.70
2022-10-21T03:07:36.852Z,77.07
2022-10-21T03:10:03.434Z,76.45
2022-10-21T03:12:29.698Z,76.30
2022-10-21T03:14:55.942Z,76.12
2022-10-21T03:17:25.121Z,76.26
2022-10-21T03:19:51.767Z,76.30
2022-10-21T03:22:18.027Z,76.20
2022-10-21T03:24:44.325Z,76.16
2022-10-21T03:27:10.568Z,75.94
2022-10-21T03:29:36.828Z,76.12
2022-10-21T03:32:03.087Z,75.95
2022-10-21T03:34:29.384Z,75.77
2022-10-21T03:36:55.672Z,75.72
2022-10-21T03:39:21.934Z,75.97
2022-10-21T03:41:48.195Z,75.75
2022-10-21T03:44:14.569Z,76.01
2022-10-21T03:46:40.820Z,75.80
2022-10-21T03:49:11.293Z,76.17
2022-10-21T03:51:41.972Z,76.36
2022-10-21T03:54:08.224Z,76.31
2022-10-21T03:56:34.474Z,76.37
2022-10-21T03:59:00.730Z,76.44
2022-10-21T04:01:27.089Z,76.07
2022-10-21T04:03:53.390Z,76.50
2022-10-21T04:06:19.781Z,76.34
2022-10-21T04:08:46.085Z,76.44
2022-10-21T04:11:12.377Z,76.50
2022-10-21T04:13:38.630Z,76.56
2022-10-21T04:16:04.889Z,76.67
2022-10-21T04:18:31.325Z,76.73
2022-10-21T04:20:57.575Z,77.08
2022-10-21T04:23:24.189Z,77.03
2022-10-21T04:25:50.435Z,77.23
2022-10-21T04:28:16.683Z,77.13
2022-10-21T04:30:43.060Z,77.38
2022-10-21T04:33:09.325Z,77.89
2022-10-21T04:35:35.599Z,78.02
2022-10-21T04:38:01.835Z,77.78
2022-10-21T04:40:28.084Z,78.07
2022-10-21T04:42:54.336Z,77.97
2022-10-21T04:45:20.578Z,78.01
2022-10-21T04:47:46.832Z,78.03
2022-10-21T04:50:13.216Z,78.24
2022-10-21T04:52:39.722Z,78.40
2022-10-21T04:55:06.088Z,78.15
2022-10-21T04:57:32.345Z,78.38
2022-10-21T04:59:58.586Z,78.49
2022-10-21T05:02:25.643Z,78.32
2022-10-21T05:04:52.076Z,78.45
2022-10-21T05:07:18.342Z,78.29
2022-10-21T05:09:44.599Z,78.83
2022-10-21T05:12:10.999Z,78.86
2022-10-21T05:14:37.465Z,78.25
2022-10-21T05:17:03.760Z,78.35
2022-10-21T05:19:31.376Z,78.57
2022-10-21T05:21:57.990Z,78.48
2022-10-21T05:24:24.243Z,78.53
2022-10-21T05:26:51.446Z,78.89
2022-10-21T05:29:17.636Z,79.20
2022-10-21T05:31:43.934Z,79.40
2022-10-21T05:34:10.211Z,79.61
2022-10-21T05:36:36.473Z,79.18
2022-10-21T05:39:02.888Z,79.55
2022-10-21T05:41:29.129Z,79.47
2022-10-21T05:43:55.421Z,79.43
2022-10-21T05:46:21.686Z,79.49
2022-10-21T05:51:25.353Z,79.68
2022-10-21T05:53:51.604Z,79.58
2022-10-21T05:56:17.886Z,79.56
2022-10-21T05:58:44.136Z,79.31
2022-10-21T06:01:10.751Z,79.31
2022-10-21T06:03:37.057Z,78.98
2022-10-21T06:06:03.480Z,79.02
2022-10-21T06:08:29.786Z,78.85
2022-10-21T06:10:56.104Z,79.04
2022-10-21T06:13:22.360Z,78.95
2022-10-21T06:15:51.038Z,79.51
2022-10-21T06:18:17.446Z,79.54
2022-10-21T06:20:43.706Z,79.00
2022-10-21T06:23:12.214Z,78.73
2022-10-21T06:25:38.496Z,78.70
2022-10-21T06:28:04.745Z,78.64
2022-10-21T06:30:31.092Z,78.99
2022-10-21T06:32:57.350Z,78.84
2022-10-21T06:35:23.616Z,79.14
2022-10-21T06:37:49.873Z,78.64
2022-10-21T06:40:16.162Z,78.94
2022-10-21T06:42:42.424Z,78.83
2022-10-21T06:45:08.879Z,78.59
2022-10-21T06:47:35.139Z,78.44
2022-10-21T06:50:03.441Z,78.74
2022-10-21T06:52:30.032Z,78.25
2022-10-21T06:54:56.293Z,78.21
2022-10-21T06:57:22.581Z,78.08
2022-10-21T06:59:48.912Z,77.22
2022-10-21T07:02:15.172Z,77.34
2022-10-21T07:04:44.891Z,77.40
2022-10-21T07:07:11.175Z,77.10
2022-10-21T07:09:37.675Z,76.43
2022-10-21T07:12:04.515Z,75.88
2022-10-21T07:14:30.925Z,75.79
2022-10-21T07:16:57.167Z,75.48
2022-10-21T07:19:23.416Z,75.37
2022-10-21T07:21:49.679Z,75.32
2022-10-21T07:24:18.737Z,74.91
2022-10-21T07:26:46.887Z,74.79
2022-10-21T07:29:13.163Z,75.25
2022-10-21T07:31:39.459Z,74.98
2022-10-21T07:34:05.746Z,74.99
2022-10-21T07:36:32.037Z,74.94
2022-10-21T07:38:58.286Z,74.76
2022-10-21T07:41:24.542Z,75.24
2022-10-21T07:43:50.821Z,75.76
2022-10-21T07:46:17.088Z,75.36
2022-10-21T07:48:43.382Z,75.25
2022-10-21T07:51:09.661Z,75.24
2022-10-21T07:53:35.980Z,75.47
2022-10-21T07:56:02.232Z,75.03
2022-10-21T07:58:28.482Z,74.86
2022-10-21T08:00:54.776Z,74.87
2022-10-21T08:03:21.052Z,74.96
2022-10-21T08:05:51.118Z,74.56
2022-10-21T08:08:17.435Z,74.57
2022-10-21T08:10:43.778Z,74.44
2022-10-21T08:13:10.184Z,74.38
2022-10-21T08:15:36.452Z,74.50
2022-10-21T08:18:02.725Z,74.17
2022-10-21T08:20:28.998Z,74.11
2022-10-21T08:22:55.258Z,73.86
2022-10-21T08:25:21.506Z,73.87
2022-10-21T08:27:47.859Z,73.78
2022-10-21T08:30:15.484Z,73.61
2022-10-21T08:32:41.797Z,73.60
2022-10-21T08:35:08.067Z,72.87
2022-10-21T08:37:34.319Z,72.64
2022-10-21T08:40:00.619Z,72.24
2022-10-21T08:42:26.891Z,72.36
2022-10-21T08:44:53.145Z,72.00
2022-10-21T08:47:19.434Z,71.98
2022-10-21T08:49:45.700Z,71.22
2022-10-21T08:52:11.952Z,70.21
2022-10-21T08:54:38.218Z,69.71
2022-10-21T08:57:04.466Z,69.39
2022-10-21T08:59:30.882Z,69.16
2022-10-21T09:01:57.136Z,69.20
2022-10-21T09:04:23.400Z,69.13
2022-10-21T09:06:49.642Z,68.90
2022-10-21T09:09:15.964Z,68.74
2022-10-21T09:11:42.296Z,67.87
2022-10-21T09:14:08.547Z,67.60
2022-10-21T09:16:34.953Z,67.56
2022-10-21T09:19:01.203Z,67.58
2022-10-21T09:21:27.447Z,67.58
2022-10-21T09:23:53.775Z,67.85
2022-10-21T09:26:20.080Z,68.00
2022-10-21T09:28:46.340Z,68.66
2022-10-21T09:31:12.600Z,68.57
2022-10-21T09:33:38.919Z,68.34
2022-10-21T09:36:05.183Z,68.42
2022-10-21T09:38:31.483Z,68.41
2022-10-21T09:41:03.038Z,68.25
2022-10-21T09:43:29.307Z,68.68
2022-10-21T09:45:55.547Z,68.61
2022-10-21T09:48:21.803Z,68.60
2022-10-21T09:50:48.047Z,68.99
2022-10-21T09:53:14.298Z,68.34
2022-10-21T09:55:40.616Z,67.93
2022-10-21T09:58:06.881Z,67.96
2022-10-21T10:00:33.149Z,67.98
2022-10-21T10:02:59.452Z,68.03
2022-10-21T10:05:25.706Z,67.66
2022-10-21T10:07:52.109Z,67.78
2022-10-21T10:10:18.369Z,67.67
2022-10-21T10:12:44.621Z,67.69
2022-10-21T10:15:10.877Z,67.41
2022-10-21T10:17:38.566Z,67.26
2022-10-21T10:20:05.173Z,67.30
2022-10-21T10:22:31.655Z,67.87
2022-10-21T10:24:57.916Z,67.43
2022-10-21T10:27:26.494Z,67.32
2022-10-21T10:29:53.429Z,67.41
2022-10-21T10:32:19.671Z,66.84
2022-10-21T10:34:45.927Z,67.04
2022-10-21T10:37:12.220Z,67.44
2022-10-21T10:39:38.475Z,67.24
2022-10-21T10:42:04.731Z,67.28
2022-10-21T10:44:30.986Z,67.38
2022-10-21T10:46:57.288Z,67.57
2022-10-21T10:49:23.628Z,67.18
2022-10-21T10:51:49.931Z,67.13
2022-10-21T10:54:17.346Z,67.27
2022-10-21T10:56:43.606Z,66.68
2022-10-21T10:59:09.850Z,66.82
2022-10-21T11:01:36.144Z,67.12
2022-10-21T11:04:02.602Z,66.87
2022-10-21T11:06:28.889Z,66.13
2022-10-21T11:08:55.195Z,66.30
2022-10-21T11:11:21.674Z,66.38
2022-10-21T11:13:47.977Z,66.00
2022-10-21T11:16:14.260Z,65.60
2022-10-21T11:18:40.511Z,65.62
2022-10-21T11:21:07.481Z,65.54
2022-10-21T11:23:33.725Z,65.94
2022-10-21T11:25:59.987Z,66.04
2022-10-21T11:28:26.255Z,66.08
2022-10-21T11:30:52.503Z,65.86
2022-10-21T11:33:18.760Z,65.82
2022-10-21T11:35:45.038Z,66.56
2022-10-21T11:38:11.312Z,66.25
2022-10-21T11:40:37.598Z,66.45
2022-10-21T11:43:03.872Z,66.77
2022-10-21T11:45:30.190Z,66.61
2022-10-21T11:47:56.441Z,66.88
2022-10-21T11:50:22.693Z,67.05
2022-10-21T11:52:48.975Z,67.17
2022-10-21T11:55:15.835Z,67.27
2022-10-21T11:57:42.157Z,67.06
2022-10-21T12:00:08.469Z,67.03
2022-10-21T12:02:34.797Z,66.81
2022-10-21T12:05:01.080Z,66.56
2022-10-21T12:07:27.420Z,66.48
2022-10-21T12:09:53.682Z,66.44
2022-10-21T12:12:19.939Z,66.06
2022-10-21T12:14:46.214Z,66.15
2022-10-21T12:17:12.467Z,66.41
2022-10-21T12:19:38.732Z,67.21
2022-10-21T12:22:05.010Z,67.75
2022-10-21T12:24:32.045Z,68.96
2022-10-21T12:26:58.232Z,69.33
2022-10-21T12:29:24.501Z,68.60
2022-10-21T12:31:50.760Z,68.37
2022-10-21T12:34:17.045Z,68.74
2022-10-21T12:36:43.310Z,68.27
2022-10-21T12:39:09.639Z,68.84
2022-10-21T12:41:36.108Z,69.53
2022-10-21T12:44:02.730Z,69.94
2022-10-21T12:46:28.982Z,71.59
2022-10-21T12:48:55.260Z,72.31
2022-10-21T12:51:46.843Z,74.39
2022-10-21T12:54:13.270Z,76.37
2022-10-21T12:56:39.569Z,77.35
2022-10-21T12:59:09.955Z,78.83
2022-10-21T13:01:36.270Z,80.98
2022-10-21T13:04:02.567Z,82.01
2022-10-21T13:06:28.859Z,82.39
2022-10-21T13:08:55.545Z,82.22
2022-10-21T13:11:22.874Z,82.99
2022-10-21T13:13:49.939Z,83.69
2022-10-21T13:16:20.049Z,84.43
2022-10-21T13:18:46.313Z,84.89
2022-10-21T13:21:12.592Z,85.42
2022-10-21T13:23:38.869Z,86.03
2022-10-21T13:26:05.198Z,86.29
2022-10-21T13:28:31.494Z,86.37
2022-10-21T13:30:57.830Z,87.23
2022-10-21T13:33:24.079Z,88.44
2022-10-21T13:35:50.408Z,88.34
2022-10-21T13:38:16.667Z,88.69
2022-10-21T13:40:42.937Z,89.43
2022-10-21T13:43:09.216Z,89.41
2022-10-21T13:45:35.501Z,89.41
2022-10-21T13:48:01.787Z,89.12
2022-10-21T13:50:28.405Z,89.18
2022-10-21T13:52:54.684Z,89.54
2022-10-21T13:55:20.994Z,89.72
2022-10-21T13:57:47.265Z,89.77
2022-10-21T14:00:13.533Z,90.34
2022-10-21T14:02:39.805Z,90.62
2022-10-21T14:05:06.052Z,91.53
2022-10-21T14:07:32.336Z,91.80
2022-10-21T14:09:58.952Z,91.30
2022-10-21T14:12:25.226Z,91.94
2022-10-21T14:14:51.624Z,91.71
2022-10-21T14:17:17.883Z,92.06
2022-10-21T14:19:44.147Z,92.43
2022-10-21T14:22:10.623Z,92.86
2022-10-21T14:24:37.030Z,92.75
2022-10-21T14:29:53.608Z,93.86
2022-10-21T14:32:22.923Z,93.27
2022-10-21T14:34:49.177Z,93.02
2022-10-21T14:37:15.443Z,93.52
2022-10-21T14:39:41.695Z,93.47
2022-10-21T14:42:08.128Z,93.02
2022-10-21T14:44:34.458Z,92.97
2022-10-21T14:47:00.754Z,93.14
2022-10-21T14:49:27.053Z,92.74
2022-10-21T14:51:53.299Z,92.79
2022-10-21T14:54:19.544Z,92.94
2022-10-21T14:56:46.732Z,92.94
2022-10-21T14:59:12.919Z,93.17
2022-10-21T15:01:39.181Z,93.63
2022-10-21T15:04:05.429Z,93.80
2022-10-21T15:06:32.635Z,93.86
2022-10-21T15:08:58.972Z,93.69
2022-10-21T15:11:25.452Z,93.71
2022-10-21T15:13:51.712Z,94.18
2022-10-21T15:16:17.954Z,94.83
2022-10-21T15:18:45.436Z,95.00
2022-10-21T15:21:11.691Z,95.77
2022-10-21T15:23:37.965Z,95.56
2022-10-21T15:26:05.850Z,95.81
2022-10-21T15:28:32.143Z,95.22
2022-10-21T15:30:59.540Z,96.49
2022-10-21T15:33:26.495Z,97.41
2022-10-21T15:35:52.983Z,96.94
2022-10-21T15:38:19.230Z,97.35
2022-10-21T15:40:45.487Z,97.23
2022-10-21T15:43:11.759Z,97.48
2022-10-21T15:45:41.881Z,97.80
2022-10-21T15:48:08.150Z,97.64
2022-10-21T15:50:36.527Z,97.20
2022-10-21T15:53:02.785Z,96.80
2022-10-21T15:55:29.078Z,96.60
2022-10-21T15:57:55.345Z,96.74
2022-10-21T16:00:21.693Z,96.71
2022-10-21T16:02:48.000Z,96.76
2022-10-21T16:05:14.283Z,97.35
2022-10-21T16:07:40.951Z,97.37
2022-10-21T16:10:07.208Z,97.20
2022-10-21T16:12:33.554Z,97.90
2022-10-21T16:14:59.802Z,97.53
2022-10-21T16:17:28.538Z,97.87
2022-10-21T16:19:54.910Z,97.53
2022-10-21T16:22:21.216Z,97.47
2022-10-21T16:24:47.490Z,97.39
2022-10-21T16:27:13.802Z,97.31
2022-10-21T16:29:40.076Z,97.76
2022-10-21T16:32:06.408Z,97.86
2022-10-21T16:34:32.665Z,98.06
2022-10-21T16:36:58.967Z,98.99
2022-10-21T16:39:25.516Z,99.42
2022-10-21T16:41:52.150Z,99.97
2022-10-21T16:44:18.418Z,99.45
2022-10-21T16:46:44.668Z,99.33
2022-10-21T16:49:12.179Z,99.41
2022-10-21T16:51:39.448Z,99.49
2022-10-21T16:54:05.770Z,99.88
2022-10-21T16:56:32.028Z,99.38
2022-10-21T16:58:58.300Z,99.29
2022-10-21T17:01:24.677Z,98.59
2022-10-21T17:03:51.024Z,99.08
2022-10-21T17:06:17.303Z,98.94
2022-10-21T17:08:43.640Z,98.78
2022-10-21T17:11:09.949Z,98.97
2022-10-21T17:13:36.193Z,98.69
2022-10-21T17:16:05.955Z,99.09
2022-10-21T17:18:32.213Z,98.86
2022-10-21T17:20:58.488Z,98.68
2022-10-21T17:23:24.744Z,98.78
2022-10-21T17:25:51.005Z,99.15
2022-10-21T17:28:17.250Z,98.66
2022-10-21T17:30:43.512Z,97.99
2022-10-21T17:33:13.318Z,97.94
2022-10-21T17:35:40.535Z,98.09
2022-10-21T17:38:06.808Z,97.75
2022-10-21T17:40:33.068Z,97.28
2022-10-21T17:42:59.404Z,98.02
2022-10-21T17:45:25.653Z,98.02
2022-10-21T17:47:51.923Z,97.49
2022-10-21T17:50:24.037Z,97.61
2022-10-21T17:55:40.710Z,97.35
2022-10-21T17:58:06.966Z,97.58
2022-10-21T18:00:33.236Z,97.33
2022-10-21T18:02:59.487Z,96.89
2022-10-21T18:05:25.784Z,97.24
2022-10-21T18:07:52.091Z,97.27
2022-10-21T18:10:18.358Z,97.21
2022-10-21T18:12:44.600Z,97.28
2022-10-21T18:15:10.856Z,97.32
2022-10-21T18:17:39.866Z,96.84
2022-10-21T18:20:06.957Z,96.58
2022-10-21T18:22:33.224Z,96.60
2022-10-21T18:24:59.486Z,96.63
2022-10-21T18:27:25.735Z,96.39
2022-10-21T18:29:51.981Z,96.36
2022-10-21T18:32:18.367Z,96.63
2022-10-21T18:34:44.611Z,96.47
2022-10-21T18:37:10.865Z,96.54
2022-10-21T18:39:37.148Z,96.49
2022-10-21T18:42:03.395Z,96.34
2022-10-21T18:44:30.319Z,96.53
2022-10-21T18:46:56.575Z,97.20
2022-10-21T18:49:22.903Z,97.14
2022-10-21T18:51:49.163Z,97.28
2022-10-21T18:54:15.669Z,97.09
2022-10-21T18:56:41.975Z,97.02
2022-10-21T18:59:09.834Z,97.07
2022-10-21T19:01:39.854Z,96.93
2022-10-21T19:04:06.263Z,97.34
2022-10-21T19:06:32.540Z,97.27
2022-10-21T19:09:00.877Z,97.33
2022-10-21T19:11:27.238Z,97.27
2022-10-21T19:13:53.493Z,97.54
2022-10-21T19:16:19.806Z,97.56
2022-10-21T19:18:46.067Z,97.12
2022-10-21T19:21:12.947Z,96.82
2022-10-21T19:23:39.209Z,97.13
2022-10-21T19:26:05.508Z,97.03
2022-10-21T19:28:31.771Z,97.62
2022-10-21T19:30:58.031Z,97.44
2022-10-21T19:33:24.314Z,97.61
2022-10-21T19:35:50.573Z,97.41
2022-10-21T19:38:26.190Z,97.14
2022-10-21T19:40:58.828Z,97.19
2022-10-21T19:43:25.120Z,97.22
2022-10-21T19:45:53.009Z,97.46
2022-10-21T19:48:19.296Z,97.82
2022-10-21T19:50:45.616Z,97.57
2022-10-21T19:53:11.867Z,97.83
2022-10-21T19:55:38.149Z,97.97
2022-10-21T19:58:04.398Z,97.66
2022-10-21T20:00:30.650Z,97.37
2022-10-21T20:02:56.907Z,97.69
2022-10-21T20:05:23.179Z,97.93
2022-10-21T20:07:49.427Z,98.02
2022-10-21T20:10:15.706Z,98.25
2022-10-21T20:12:42.256Z,97.94
2022-10-21T20:15:08.696Z,97.98
2022-10-21T20:17:35.083Z,98.03
2022-10-21T20:20:01.355Z,98.03
2022-10-21T20:22:27.645Z,97.58
2022-10-21T20:24:53.890Z,97.53
2022-10-21T20:27:23.737Z,98.33
2022-10-21T20:29:49.992Z,98.34
2022-10-21T20:32:16.278Z,97.94
2022-10-21T20:34:43.410Z,97.96
2022-10-21T20:37:09.609Z,98.50
2022-10-21T20:39:35.866Z,98.11
2022-10-21T20:42:02.210Z,97.55
2022-10-21T20:44:28.481Z,97.79
2022-10-21T20:46:54.735Z,97.79
2022-10-21T20:49:20.974Z,97.43
2022-10-21T20:51:47.275Z,97.75
2022-10-21T20:54:13.532Z,97.99
2022-10-21T20:56:39.800Z,97.85
2022-10-21T20:59:06.035Z,97.36
2022-10-21T21:01:32.411Z,96.73
2022-10-21T21:03:58.745Z,96.90
2022-10-21T21:06:25.014Z,97.42
2022-10-21T21:09:08.557Z,97.08
2022-10-21T21:11:37.506Z,97.07
2022-10-21T21:14:03.776Z,97.29
2022-10-21T21:16:30.043Z,97.10
2022-10-21T21:18:56.314Z,97.04
2022-10-21T21:21:22.563Z,96.93
2022-10-21T21:23:49.004Z,97.39
2022-10-21T21:26:15.273Z,97.38
2022-10-21T21:28:41.568Z,97.89
2022-10-21T21:31:07.826Z,97.61
2022-10-21T21:33:34.089Z,97.46
2022-10-21T21:36:00.353Z,97.52
2022-10-21T21:38:26.623Z,97.47
2022-10-21T21:40:53.261Z,97.34
2022-10-21T21:43:19.543Z,97.41
2022-10-21T21:45:45.854Z,97.25
2022-10-21T21:48:12.209Z,97.20
2022-10-21T21:50:38.503Z,96.88
2022-10-21T21:53:04.751Z,96.78
2022-10-21T21:55:31.005Z,97.42
2022-10-21T21:57:57.267Z,97.17
2022-10-21T22:00:23.540Z,96.98
2022-10-21T22:02:49.803Z,97.02
2022-10-21T22:05:16.155Z,96.29
2022-10-21T22:07:42.697Z,96.96
2022-10-21T22:10:09.155Z,97.08
2022-10-21T22:12:35.407Z,97.16
2022-10-21T22:15:01.868Z,96.54
2022-10-21T22:17:28.385Z,96.93
2022-10-21T22:19:54.650Z,96.70
2022-10-21T22:22:20.918Z,96.57
2022-10-21T22:24:47.169Z,97.10
2022-10-21T22:27:13.436Z,97.39
2022-10-21T22:29:39.686Z,97.12
2022-10-21T22:32:05.984Z,96.85
2022-10-21T22:34:32.245Z,96.60
2022-10-21T22:36:58.494Z,96.39
2022-10-21T22:39:25.605Z,96.15
2022-10-21T22:41:51.801Z,96.93
2022-10-21T22:44:18.104Z,96.77
2022-10-21T22:46:44.367Z,96.80
2022-10-21T22:49:10.648Z,96.92
2022-10-21T22:51:36.905Z,96.76
2022-10-21T22:54:03.498Z,96.98
2022-10-21T22:56:29.971Z,96.93
2022-10-21T22:58:57.435Z,97.77
2022-10-21T23:01:26.556Z,97.77
2022-10-21T23:03:52.808Z,97.96
2022-10-21T23:06:19.147Z,98.39
2022-10-21T23:08:45.433Z,97.79
2022-10-21T23:11:11.730Z,97.76
2022-10-21T23:13:38.011Z,97.81
2022-10-21T23:16:04.303Z,97.39
2022-10-21T23:18:30.574Z,97.85
2022-10-21T23:20:56.830Z,98.08
2022-10-21T23:23:23.099Z,98.06
2022-10-21T23:25:49.369Z,98.26
2022-10-21T23:28:15.670Z,98.33
2022-10-21T23:30:43.202Z,98.60
2022-10-21T23:33:09.511Z,98.28
2022-10-21T23:35:35.772Z,98.53
2022-10-21T23:38:02.086Z,98.64
2022-10-21T23:40:28.334Z,98.33
2022-10-21T23:42:54.603Z,98.54
2022-10-21T23:45:20.846Z,98.28
2022-10-21T23:47:47.101Z,97.94
2022-10-21T23:50:13.368Z,98.14
2022-10-21T23:52:39.665Z,98.44
2022-10-21T23:55:05.924Z,98.48
2022-10-21T23:57:32.182Z,98.07
2022-10-21T23:59:58.430Z,97.87
